sensor_id;sensor_type;location;lat;lon;timestamp;P1;durP1;ratioP1;P2;durP2;ratioP2
81950;SDS011;71452;52.562;5.642;2024-03-22T00:01:42;22.20;;;9.43;;
81950;SDS011;71452;52.562;5.642;2024-03-22T00:04:09;19.75;;;7.50;;
81950;SDS011;71452;52.562;5.642;2024-03-22T00:06:36;18.45;;;9.45;;
81950;SDS011;71452;52.562;5.642;2024-03-22T00:09:03;19.65;;;9.32;;
81950;SDS011;71452;52.562;5.642;2024-03-22T00:11:32;20.35;;;9.60;;
81950;SDS011;71452;52.562;5.642;2024-03-22T00:13:59;19.80;;;8.85;;
81950;SDS011;71452;52.562;5.642;2024-03-22T00:16:25;22.25;;;10.50;;
81950;SDS011;71452;52.562;5.642;2024-03-22T00:18:52;21.58;;;9.52;;
81950;SDS011;71452;52.562;5.642;2024-03-22T00:21:19;21.42;;;8.85;;
81950;SDS011;71452;52.562;5.642;2024-03-22T00:23:47;21.13;;;8.82;;
81950;SDS011;71452;52.562;5.642;2024-03-22T00:26:14;25.73;;;10.52;;
81950;SDS011;71452;52.562;5.642;2024-03-22T00:28:43;20.10;;;10.27;;
81950;SDS011;71452;52.562;5.642;2024-03-22T00:31:10;21.45;;;9.57;;
81950;SDS011;71452;52.562;5.642;2024-03-22T00:33:36;22.92;;;9.30;;
81950;SDS011;71452;52.562;5.642;2024-03-22T00:36:03;22.88;;;9.90;;
81950;SDS011;71452;52.562;5.642;2024-03-22T00:38:31;19.90;;;9.82;;
81950;SDS011;71452;52.562;5.642;2024-03-22T00:40:57;23.15;;;9.77;;
81950;SDS011;71452;52.562;5.642;2024-03-22T00:43:24;22.27;;;11.90;;
81950;SDS011;71452;52.562;5.642;2024-03-22T00:45:53;23.85;;;9.98;;
81950;SDS011;71452;52.562;5.642;2024-03-22T00:48:20;21.17;;;10.10;;
81950;SDS011;71452;52.562;5.642;2024-03-22T00:50:47;23.33;;;10.45;;
81950;SDS011;71452;52.562;5.642;2024-03-22T00:53:13;24.27;;;11.35;;
81950;SDS011;71452;52.562;5.642;2024-03-22T00:55:40;21.90;;;9.30;;
81950;SDS011;71452;52.562;5.642;2024-03-22T00:58:06;20.67;;;10.52;;
81950;SDS011;71452;52.562;5.642;2024-03-22T01:00:33;17.77;;;9.82;;
81950;SDS011;71452;52.562;5.642;2024-03-22T01:03:03;23.13;;;10.15;;
81950;SDS011;71452;52.562;5.642;2024-03-22T01:05:30;20.05;;;9.95;;
81950;SDS011;71452;52.562;5.642;2024-03-22T01:07:56;23.73;;;10.23;;
81950;SDS011;71452;52.562;5.642;2024-03-22T01:10:23;24.70;;;10.73;;
81950;SDS011;71452;52.562;5.642;2024-03-22T01:12:50;24.92;;;10.48;;
81950;SDS011;71452;52.562;5.642;2024-03-22T01:15:16;24.38;;;11.52;;
81950;SDS011;71452;52.562;5.642;2024-03-22T01:17:43;27.77;;;10.45;;
81950;SDS011;71452;52.562;5.642;2024-03-22T01:20:13;23.63;;;9.55;;
81950;SDS011;71452;52.562;5.642;2024-03-22T01:22:40;23.25;;;9.50;;
81950;SDS011;71452;52.562;5.642;2024-03-22T01:25:07;26.30;;;11.48;;
81950;SDS011;71452;52.562;5.642;2024-03-22T01:27:34;23.48;;;10.27;;
81950;SDS011;71452;52.562;5.642;2024-03-22T01:30:01;21.75;;;10.48;;
81950;SDS011;71452;52.562;5.642;2024-03-22T01:34:54;20.40;;;9.82;;
81950;SDS011;71452;52.562;5.642;2024-03-22T01:37:24;24.85;;;11.05;;
81950;SDS011;71452;52.562;5.642;2024-03-22T01:39:50;22.60;;;9.73;;
81950;SDS011;71452;52.562;5.642;2024-03-22T01:42:17;27.20;;;10.65;;
81950;SDS011;71452;52.562;5.642;2024-03-22T01:44:43;26.70;;;11.70;;
81950;SDS011;71452;52.562;5.642;2024-03-22T01:47:10;30.25;;;11.93;;
81950;SDS011;71452;52.562;5.642;2024-03-22T01:49:37;26.23;;;10.77;;
81950;SDS011;71452;52.562;5.642;2024-03-22T01:52:04;29.60;;;11.60;;
81950;SDS011;71452;52.562;5.642;2024-03-22T01:54:34;26.50;;;10.63;;
81950;SDS011;71452;52.562;5.642;2024-03-22T01:57:01;29.83;;;10.98;;
81950;SDS011;71452;52.562;5.642;2024-03-22T02:01:54;24.85;;;10.50;;
81950;SDS011;71452;52.562;5.642;2024-03-22T02:04:21;24.95;;;12.23;;
81950;SDS011;71452;52.562;5.642;2024-03-22T02:06:48;28.85;;;11.27;;
81950;SDS011;71452;52.562;5.642;2024-03-22T02:09:14;32.30;;;11.50;;
81950;SDS011;71452;52.562;5.642;2024-03-22T02:11:44;28.38;;;10.52;;
81950;SDS011;71452;52.562;5.642;2024-03-22T02:14:11;23.23;;;12.00;;
81950;SDS011;71452;52.562;5.642;2024-03-22T02:16:39;24.50;;;10.88;;
81950;SDS011;71452;52.562;5.642;2024-03-22T02:19:06;24.88;;;11.05;;
81950;SDS011;71452;52.562;5.642;2024-03-22T02:21:33;25.10;;;12.15;;
81950;SDS011;71452;52.562;5.642;2024-03-22T02:24:02;27.48;;;10.93;;
81950;SDS011;71452;52.562;5.642;2024-03-22T02:26:29;25.08;;;10.15;;
81950;SDS011;71452;52.562;5.642;2024-03-22T02:28:56;27.30;;;11.13;;
81950;SDS011;71452;52.562;5.642;2024-03-22T02:31:22;26.35;;;10.50;;
81950;SDS011;71452;52.562;5.642;2024-03-22T02:36:16;25.73;;;10.57;;
81950;SDS011;71452;52.562;5.642;2024-03-22T02:38:43;28.80;;;12.40;;
81950;SDS011;71452;52.562;5.642;2024-03-22T02:41:12;27.90;;;11.02;;
81950;SDS011;71452;52.562;5.642;2024-03-22T02:43:39;29.63;;;10.75;;
81950;SDS011;71452;52.562;5.642;2024-03-22T02:46:06;30.85;;;10.05;;
81950;SDS011;71452;52.562;5.642;2024-03-22T02:48:32;22.90;;;9.70;;
81950;SDS011;71452;52.562;5.642;2024-03-22T02:50:59;24.10;;;10.15;;
81950;SDS011;71452;52.562;5.642;2024-03-22T02:53:26;21.67;;;10.07;;
81950;SDS011;71452;52.562;5.642;2024-03-22T02:55:52;25.08;;;11.95;;
81950;SDS011;71452;52.562;5.642;2024-03-22T02:58:22;24.98;;;10.02;;
81950;SDS011;71452;52.562;5.642;2024-03-22T03:00:49;20.48;;;10.02;;
81950;SDS011;71452;52.562;5.642;2024-03-22T03:03:15;26.40;;;10.45;;
81950;SDS011;71452;52.562;5.642;2024-03-22T03:05:42;27.90;;;11.43;;
81950;SDS011;71452;52.562;5.642;2024-03-22T03:08:09;26.60;;;11.23;;
81950;SDS011;71452;52.562;5.642;2024-03-22T03:10:36;28.25;;;11.30;;
81950;SDS011;71452;52.562;5.642;2024-03-22T03:13:03;27.23;;;10.65;;
81950;SDS011;71452;52.562;5.642;2024-03-22T03:15:32;25.08;;;10.52;;
81950;SDS011;71452;52.562;5.642;2024-03-22T03:17:59;20.33;;;8.45;;
81950;SDS011;71452;52.562;5.642;2024-03-22T03:20:25;24.00;;;9.35;;
81950;SDS011;71452;52.562;5.642;2024-03-22T03:22:52;24.73;;;10.15;;
81950;SDS011;71452;52.562;5.642;2024-03-22T03:25:19;31.63;;;10.70;;
81950;SDS011;71452;52.562;5.642;2024-03-22T03:27:45;22.83;;;11.07;;
81950;SDS011;71452;52.562;5.642;2024-03-22T03:30:12;29.98;;;10.70;;
81950;SDS011;71452;52.562;5.642;2024-03-22T03:32:41;30.35;;;10.48;;
81950;SDS011;71452;52.562;5.642;2024-03-22T03:35:08;23.77;;;10.32;;
81950;SDS011;71452;52.562;5.642;2024-03-22T03:37:35;22.63;;;9.20;;
81950;SDS011;71452;52.562;5.642;2024-03-22T03:40:02;24.73;;;10.75;;
81950;SDS011;71452;52.562;5.642;2024-03-22T03:42:29;28.00;;;10.88;;
81950;SDS011;71452;52.562;5.642;2024-03-22T03:44:56;17.30;;;7.20;;
81950;SDS011;71452;52.562;5.642;2024-03-22T03:47:22;28.45;;;10.65;;
81950;SDS011;71452;52.562;5.642;2024-03-22T03:49:52;26.45;;;11.02;;
81950;SDS011;71452;52.562;5.642;2024-03-22T03:52:18;27.33;;;9.45;;
81950;SDS011;71452;52.562;5.642;2024-03-22T03:54:45;30.17;;;10.50;;
81950;SDS011;71452;52.562;5.642;2024-03-22T03:57:12;26.98;;;11.18;;
81950;SDS011;71452;52.562;5.642;2024-03-22T03:59:38;19.95;;;8.70;;
81950;SDS011;71452;52.562;5.642;2024-03-22T04:02:05;24.65;;;9.30;;
81950;SDS011;71452;52.562;5.642;2024-03-22T04:04:31;25.75;;;10.15;;
81950;SDS011;71452;52.562;5.642;2024-03-22T04:07:01;26.15;;;9.10;;
81950;SDS011;71452;52.562;5.642;2024-03-22T04:09:27;23.92;;;9.32;;
81950;SDS011;71452;52.562;5.642;2024-03-22T04:11:54;29.33;;;10.32;;
81950;SDS011;71452;52.562;5.642;2024-03-22T04:14:21;27.17;;;9.95;;
81950;SDS011;71452;52.562;5.642;2024-03-22T04:16:48;27.77;;;10.60;;
81950;SDS011;71452;52.562;5.642;2024-03-22T04:19:14;28.58;;;11.27;;
81950;SDS011;71452;52.562;5.642;2024-03-22T04:21:41;23.15;;;10.93;;
81950;SDS011;71452;52.562;5.642;2024-03-22T04:24:10;26.30;;;9.18;;
81950;SDS011;71452;52.562;5.642;2024-03-22T04:26:37;28.45;;;10.32;;
81950;SDS011;71452;52.562;5.642;2024-03-22T04:29:03;25.25;;;10.00;;
81950;SDS011;71452;52.562;5.642;2024-03-22T04:31:30;25.77;;;10.55;;
81950;SDS011;71452;52.562;5.642;2024-03-22T04:33:57;27.38;;;9.57;;
81950;SDS011;71452;52.562;5.642;2024-03-22T04:36:24;26.85;;;9.48;;
81950;SDS011;71452;52.562;5.642;2024-03-22T04:38:50;25.90;;;10.00;;
81950;SDS011;71452;52.562;5.642;2024-03-22T04:41:20;23.83;;;9.30;;
81950;SDS011;71452;52.562;5.642;2024-03-22T04:43:46;23.55;;;10.38;;
81950;SDS011;71452;52.562;5.642;2024-03-22T04:46:13;23.00;;;9.82;;
81950;SDS011;71452;52.562;5.642;2024-03-22T04:48:40;25.58;;;10.30;;
81950;SDS011;71452;52.562;5.642;2024-03-22T04:51:06;23.42;;;9.65;;
81950;SDS011;71452;52.562;5.642;2024-03-22T04:53:33;20.08;;;8.80;;
81950;SDS011;71452;52.562;5.642;2024-03-22T04:56:00;20.10;;;9.25;;
81950;SDS011;71452;52.562;5.642;2024-03-22T04:58:29;19.48;;;9.77;;
81950;SDS011;71452;52.562;5.642;2024-03-22T05:00:56;24.63;;;8.95;;
81950;SDS011;71452;52.562;5.642;2024-03-22T05:03:24;18.60;;;7.45;;
81950;SDS011;71452;52.562;5.642;2024-03-22T05:05:50;17.35;;;8.23;;
81950;SDS011;71452;52.562;5.642;2024-03-22T05:08:17;25.33;;;8.43;;
81950;SDS011;71452;52.562;5.642;2024-03-22T05:10:44;28.73;;;8.13;;
81950;SDS011;71452;52.562;5.642;2024-03-22T05:13:10;18.33;;;7.85;;
81950;SDS011;71452;52.562;5.642;2024-03-22T05:15:40;19.63;;;8.38;;
81950;SDS011;71452;52.562;5.642;2024-03-22T05:18:06;19.05;;;8.35;;
81950;SDS011;71452;52.562;5.642;2024-03-22T05:20:33;20.15;;;7.88;;
81950;SDS011;71452;52.562;5.642;2024-03-22T05:23:00;23.10;;;8.80;;
81950;SDS011;71452;52.562;5.642;2024-03-22T05:25:26;21.27;;;7.68;;
81950;SDS011;71452;52.562;5.642;2024-03-22T05:27:53;16.88;;;7.25;;
81950;SDS011;71452;52.562;5.642;2024-03-22T05:30:20;17.85;;;7.07;;
81950;SDS011;71452;52.562;5.642;2024-03-22T05:32:49;21.10;;;8.13;;
81950;SDS011;71452;52.562;5.642;2024-03-22T05:35:16;18.25;;;7.43;;
81950;SDS011;71452;52.562;5.642;2024-03-22T05:37:43;16.95;;;6.47;;
81950;SDS011;71452;52.562;5.642;2024-03-22T05:40:10;22.95;;;7.30;;
81950;SDS011;71452;52.562;5.642;2024-03-22T05:42:37;15.75;;;6.53;;
81950;SDS011;71452;52.562;5.642;2024-03-22T05:45:04;13.77;;;6.65;;
81950;SDS011;71452;52.562;5.642;2024-03-22T05:47:32;17.63;;;6.97;;
81950;SDS011;71452;52.562;5.642;2024-03-22T05:50:01;13.73;;;5.93;;
81950;SDS011;71452;52.562;5.642;2024-03-22T05:52:28;17.42;;;6.57;;
81950;SDS011;71452;52.562;5.642;2024-03-22T05:54:55;18.00;;;6.55;;
81950;SDS011;71452;52.562;5.642;2024-03-22T05:57:21;13.55;;;6.18;;
81950;SDS011;71452;52.562;5.642;2024-03-22T05:59:48;14.38;;;4.85;;
81950;SDS011;71452;52.562;5.642;2024-03-22T06:02:15;14.52;;;6.22;;
81950;SDS011;71452;52.562;5.642;2024-03-22T06:04:42;17.52;;;7.05;;
81950;SDS011;71452;52.562;5.642;2024-03-22T06:07:11;18.42;;;6.03;;
81950;SDS011;71452;52.562;5.642;2024-03-22T06:09:38;18.02;;;7.10;;
81950;SDS011;71452;52.562;5.642;2024-03-22T06:12:05;15.32;;;6.57;;
81950;SDS011;71452;52.562;5.642;2024-03-22T06:16:58;11.98;;;4.20;;
81950;SDS011;71452;52.562;5.642;2024-03-22T06:19:25;14.80;;;5.72;;
81950;SDS011;71452;52.562;5.642;2024-03-22T06:21:52;17.83;;;5.97;;
81950;SDS011;71452;52.562;5.642;2024-03-22T06:24:21;19.40;;;7.07;;
81950;SDS011;71452;52.562;5.642;2024-03-22T06:26:48;16.40;;;5.97;;
81950;SDS011;71452;52.562;5.642;2024-03-22T06:29:15;21.02;;;5.07;;
81950;SDS011;71452;52.562;5.642;2024-03-22T06:31:42;14.65;;;6.22;;
81950;SDS011;71452;52.562;5.642;2024-03-22T06:34:08;14.82;;;5.32;;
81950;SDS011;71452;52.562;5.642;2024-03-22T06:36:35;11.18;;;5.35;;
81950;SDS011;71452;52.562;5.642;2024-03-22T06:39:02;14.15;;;5.35;;
81950;SDS011;71452;52.562;5.642;2024-03-22T06:41:32;10.57;;;4.65;;
81950;SDS011;71452;52.562;5.642;2024-03-22T06:43:59;11.90;;;4.45;;
81950;SDS011;71452;52.562;5.642;2024-03-22T06:46:26;11.48;;;3.85;;
81950;SDS011;71452;52.562;5.642;2024-03-22T06:48:53;10.55;;;4.25;;
81950;SDS011;71452;52.562;5.642;2024-03-22T06:53:46;12.77;;;4.47;;
81950;SDS011;71452;52.562;5.642;2024-03-22T06:56:13;14.75;;;4.60;;
81950;SDS011;71452;52.562;5.642;2024-03-22T06:58:43;9.40;;;3.92;;
81950;SDS011;71452;52.562;5.642;2024-03-22T07:01:10;7.30;;;3.70;;
81950;SDS011;71452;52.562;5.642;2024-03-22T07:03:37;9.88;;;3.15;;
81950;SDS011;71452;52.562;5.642;2024-03-22T07:06:03;14.07;;;3.95;;
81950;SDS011;71452;52.562;5.642;2024-03-22T07:08:31;10.05;;;3.40;;
81950;SDS011;71452;52.562;5.642;2024-03-22T07:10:58;7.10;;;3.67;;
81950;SDS011;71452;52.562;5.642;2024-03-22T07:13:24;13.88;;;4.53;;
81950;SDS011;71452;52.562;5.642;2024-03-22T07:15:53;12.30;;;4.15;;
81950;SDS011;71452;52.562;5.642;2024-03-22T07:18:20;13.43;;;3.63;;
81950;SDS011;71452;52.562;5.642;2024-03-22T07:20:47;7.22;;;3.13;;
81950;SDS011;71452;52.562;5.642;2024-03-22T07:23:13;13.85;;;3.63;;
81950;SDS011;71452;52.562;5.642;2024-03-22T07:25:40;7.50;;;3.25;;
81950;SDS011;71452;52.562;5.642;2024-03-22T07:28:08;16.48;;;3.80;;
81950;SDS011;71452;52.562;5.642;2024-03-22T07:30:35;8.15;;;3.95;;
81950;SDS011;71452;52.562;5.642;2024-03-22T07:33:04;11.52;;;2.90;;
81950;SDS011;71452;52.562;5.642;2024-03-22T07:35:31;11.30;;;2.53;;
81950;SDS011;71452;52.562;5.642;2024-03-22T07:37:57;10.35;;;2.72;;
81950;SDS011;71452;52.562;5.642;2024-03-22T07:40:24;13.98;;;4.07;;
81950;SDS011;71452;52.562;5.642;2024-03-22T07:42:51;6.57;;;2.42;;
81950;SDS011;71452;52.562;5.642;2024-03-22T07:45:18;7.15;;;3.40;;
81950;SDS011;71452;52.562;5.642;2024-03-22T07:47:44;8.95;;;3.25;;
81950;SDS011;71452;52.562;5.642;2024-03-22T07:50:14;10.75;;;3.90;;
81950;SDS011;71452;52.562;5.642;2024-03-22T07:52:41;10.85;;;3.63;;
81950;SDS011;71452;52.562;5.642;2024-03-22T07:55:08;9.30;;;3.30;;
81950;SDS011;71452;52.562;5.642;2024-03-22T07:57:34;6.80;;;3.47;;
81950;SDS011;71452;52.562;5.642;2024-03-22T08:00:01;7.93;;;3.15;;
81950;SDS011;71452;52.562;5.642;2024-03-22T08:02:37;9.45;;;3.22;;
81950;SDS011;71452;52.562;5.642;2024-03-22T08:05:04;7.75;;;3.13;;
81950;SDS011;71452;52.562;5.642;2024-03-22T08:07:34;8.70;;;3.08;;
81950;SDS011;71452;52.562;5.642;2024-03-22T08:10:01;13.40;;;4.05;;
81950;SDS011;71452;52.562;5.642;2024-03-22T08:14:55;17.58;;;4.32;;
81950;SDS011;71452;52.562;5.642;2024-03-22T08:17:21;14.88;;;3.55;;
81950;SDS011;71452;52.562;5.642;2024-03-22T08:19:48;6.95;;;3.40;;
81950;SDS011;71452;52.562;5.642;2024-03-22T08:22:15;8.10;;;3.75;;
81950;SDS011;71452;52.562;5.642;2024-03-22T08:24:44;11.65;;;3.50;;
81950;SDS011;71452;52.562;5.642;2024-03-22T08:27:11;13.52;;;4.25;;
81950;SDS011;71452;52.562;5.642;2024-03-22T08:29:39;13.45;;;3.95;;
81950;SDS011;71452;52.562;5.642;2024-03-22T08:32:06;6.15;;;3.00;;
81950;SDS011;71452;52.562;5.642;2024-03-22T08:34:33;10.57;;;3.53;;
81950;SDS011;71452;52.562;5.642;2024-03-22T08:37:00;13.20;;;4.47;;
81950;SDS011;71452;52.562;5.642;2024-03-22T08:39:26;17.02;;;4.22;;
81950;SDS011;71452;52.562;5.642;2024-03-22T08:41:56;11.63;;;3.78;;
81950;SDS011;71452;52.562;5.642;2024-03-22T08:44:23;14.40;;;3.08;;
81950;SDS011;71452;52.562;5.642;2024-03-22T08:46:49;11.18;;;3.97;;
81950;SDS011;71452;52.562;5.642;2024-03-22T08:49:16;7.53;;;4.03;;
81950;SDS011;71452;52.562;5.642;2024-03-22T08:51:43;6.75;;;3.65;;
81950;SDS011;71452;52.562;5.642;2024-03-22T08:54:10;7.78;;;3.35;;
81950;SDS011;71452;52.562;5.642;2024-03-22T08:56:37;12.68;;;4.55;;
81950;SDS011;71452;52.562;5.642;2024-03-22T08:59:06;10.27;;;4.60;;
81950;SDS011;71452;52.562;5.642;2024-03-22T09:01:33;12.95;;;4.38;;
81950;SDS011;71452;52.562;5.642;2024-03-22T09:03:59;8.05;;;3.80;;
81950;SDS011;71452;52.562;5.642;2024-03-22T09:06:26;10.63;;;3.83;;
81950;SDS011;71452;52.562;5.642;2024-03-22T09:08:53;11.82;;;3.33;;
81950;SDS011;71452;52.562;5.642;2024-03-22T09:11:21;8.15;;;4.65;;
81950;SDS011;71452;52.562;5.642;2024-03-22T09:13:47;9.43;;;3.95;;
81950;SDS011;71452;52.562;5.642;2024-03-22T09:16:19;8.88;;;3.95;;
81950;SDS011;71452;52.562;5.642;2024-03-22T09:18:46;8.63;;;3.83;;
81950;SDS011;71452;52.562;5.642;2024-03-22T09:21:13;7.90;;;3.47;;
81950;SDS011;71452;52.562;5.642;2024-03-22T09:23:40;7.20;;;3.67;;
81950;SDS011;71452;52.562;5.642;2024-03-22T09:26:06;7.57;;;4.13;;
81950;SDS011;71452;52.562;5.642;2024-03-22T09:28:33;13.15;;;5.05;;
81950;SDS011;71452;52.562;5.642;2024-03-22T09:31:03;12.35;;;4.22;;
81950;SDS011;71452;52.562;5.642;2024-03-22T09:33:33;9.82;;;3.67;;
81950;SDS011;71452;52.562;5.642;2024-03-22T09:36:00;10.50;;;4.25;;
81950;SDS011;71452;52.562;5.642;2024-03-22T09:38:26;7.57;;;4.07;;
81950;SDS011;71452;52.562;5.642;2024-03-22T09:40:53;9.15;;;4.15;;
81950;SDS011;71452;52.562;5.642;2024-03-22T09:43:20;9.50;;;3.92;;
81950;SDS011;71452;52.562;5.642;2024-03-22T09:45:48;9.70;;;4.43;;
81950;SDS011;71452;52.562;5.642;2024-03-22T09:48:15;8.02;;;3.72;;
81950;SDS011;71452;52.562;5.642;2024-03-22T09:50:46;9.70;;;4.22;;
81950;SDS011;71452;52.562;5.642;2024-03-22T09:53:15;9.93;;;4.30;;
81950;SDS011;71452;52.562;5.642;2024-03-22T09:55:44;12.32;;;4.28;;
81950;SDS011;71452;52.562;5.642;2024-03-22T09:58:12;6.93;;;3.65;;
81950;SDS011;71452;52.562;5.642;2024-03-22T10:00:40;7.63;;;3.72;;
81950;SDS011;71452;52.562;5.642;2024-03-22T10:03:07;8.85;;;4.43;;
81950;SDS011;71452;52.562;5.642;2024-03-22T10:05:35;8.00;;;3.58;;
81950;SDS011;71452;52.562;5.642;2024-03-22T10:08:05;8.25;;;3.65;;
81950;SDS011;71452;52.562;5.642;2024-03-22T10:10:32;7.43;;;3.55;;
81950;SDS011;71452;52.562;5.642;2024-03-22T10:13:00;6.97;;;3.92;;
81950;SDS011;71452;52.562;5.642;2024-03-22T10:15:27;8.63;;;3.65;;
81950;SDS011;71452;52.562;5.642;2024-03-22T10:17:53;5.82;;;3.05;;
81950;SDS011;71452;52.562;5.642;2024-03-22T10:20:22;7.93;;;3.45;;
81950;SDS011;71452;52.562;5.642;2024-03-22T10:22:53;9.70;;;3.47;;
81950;SDS011;71452;52.562;5.642;2024-03-22T10:25:24;7.28;;;3.40;;
81950;SDS011;71452;52.562;5.642;2024-03-22T10:27:53;7.97;;;3.63;;
81950;SDS011;71452;52.562;5.642;2024-03-22T10:30:20;5.93;;;3.10;;
81950;SDS011;71452;52.562;5.642;2024-03-22T10:32:50;9.18;;;3.63;;
81950;SDS011;71452;52.562;5.642;2024-03-22T10:35:17;7.45;;;3.38;;
81950;SDS011;71452;52.562;5.642;2024-03-22T10:37:44;7.80;;;3.53;;
81950;SDS011;71452;52.562;5.642;2024-03-22T10:40:11;10.75;;;3.13;;
81950;SDS011;71452;52.562;5.642;2024-03-22T10:42:42;8.73;;;3.85;;
81950;SDS011;71452;52.562;5.642;2024-03-22T10:45:09;5.63;;;2.85;;
81950;SDS011;71452;52.562;5.642;2024-03-22T10:47:39;8.80;;;3.38;;
81950;SDS011;71452;52.562;5.642;2024-03-22T10:50:06;5.43;;;2.78;;
81950;SDS011;71452;52.562;5.642;2024-03-22T10:52:36;5.65;;;2.67;;
81950;SDS011;71452;52.562;5.642;2024-03-22T10:55:05;4.50;;;2.25;;
81950;SDS011;71452;52.562;5.642;2024-03-22T10:57:35;8.68;;;3.80;;
81950;SDS011;71452;52.562;5.642;2024-03-22T11:00:07;8.50;;;3.85;;
81950;SDS011;71452;52.562;5.642;2024-03-22T11:02:35;5.95;;;3.08;;
81950;SDS011;71452;52.562;5.642;2024-03-22T11:05:02;8.57;;;3.00;;
81950;SDS011;71452;52.562;5.642;2024-03-22T11:09:57;4.90;;;2.35;;
81950;SDS011;71452;52.562;5.642;2024-03-22T11:12:27;5.93;;;2.92;;
81950;SDS011;71452;52.562;5.642;2024-03-22T11:14:55;5.10;;;2.22;;
81950;SDS011;71452;52.562;5.642;2024-03-22T11:17:24;5.55;;;2.42;;
81950;SDS011;71452;52.562;5.642;2024-03-22T11:19:51;5.95;;;2.72;;
81950;SDS011;71452;52.562;5.642;2024-03-22T11:22:17;4.20;;;2.13;;
81950;SDS011;71452;52.562;5.642;2024-03-22T11:24:44;5.63;;;2.63;;
81950;SDS011;71452;52.562;5.642;2024-03-22T11:27:11;2.78;;;2.05;;
81950;SDS011;71452;52.562;5.642;2024-03-22T11:29:39;3.85;;;2.33;;
81950;SDS011;71452;52.562;5.642;2024-03-22T11:32:06;3.60;;;2.15;;
81950;SDS011;71452;52.562;5.642;2024-03-22T11:34:36;3.70;;;2.30;;
81950;SDS011;71452;52.562;5.642;2024-03-22T11:37:05;4.00;;;2.15;;
81950;SDS011;71452;52.562;5.642;2024-03-22T11:39:32;3.60;;;2.08;;
81950;SDS011;71452;52.562;5.642;2024-03-22T11:42:00;4.20;;;2.30;;
81950;SDS011;71452;52.562;5.642;2024-03-22T11:44:28;3.65;;;2.50;;
81950;SDS011;71452;52.562;5.642;2024-03-22T11:46:55;5.13;;;2.78;;
81950;SDS011;71452;52.562;5.642;2024-03-22T11:49:21;5.40;;;2.72;;
81950;SDS011;71452;52.562;5.642;2024-03-22T11:51:51;4.57;;;2.70;;
81950;SDS011;71452;52.562;5.642;2024-03-22T11:54:19;8.77;;;3.75;;
81950;SDS011;71452;52.562;5.642;2024-03-22T11:59:12;6.28;;;3.35;;
81950;SDS011;71452;52.562;5.642;2024-03-22T12:01:39;6.97;;;3.55;;
81950;SDS011;71452;52.562;5.642;2024-03-22T12:04:06;9.68;;;3.40;;
81950;SDS011;71452;52.562;5.642;2024-03-22T12:06:33;7.22;;;3.50;;
81950;SDS011;71452;52.562;5.642;2024-03-22T12:09:03;8.27;;;3.10;;
81950;SDS011;71452;52.562;5.642;2024-03-22T12:11:29;7.82;;;3.55;;
81950;SDS011;71452;52.562;5.642;2024-03-22T12:13:56;8.70;;;3.13;;
81950;SDS011;71452;52.562;5.642;2024-03-22T12:16:23;13.43;;;4.47;;
81950;SDS011;71452;52.562;5.642;2024-03-22T12:18:49;9.57;;;4.15;;
81950;SDS011;71452;52.562;5.642;2024-03-22T12:21:16;7.38;;;3.63;;
81950;SDS011;71452;52.562;5.642;2024-03-22T12:23:43;12.52;;;3.50;;
81950;SDS011;71452;52.562;5.642;2024-03-22T12:26:12;8.30;;;4.20;;
81950;SDS011;71452;52.562;5.642;2024-03-22T12:28:39;11.68;;;3.78;;
81950;SDS011;71452;52.562;5.642;2024-03-22T12:31:07;7.43;;;3.97;;
81950;SDS011;71452;52.562;5.642;2024-03-22T12:33:35;11.98;;;4.50;;
81950;SDS011;71452;52.562;5.642;2024-03-22T12:36:01;10.05;;;3.72;;
81950;SDS011;71452;52.562;5.642;2024-03-22T12:38:29;7.10;;;3.28;;
81950;SDS011;71452;52.562;5.642;2024-03-22T12:40:55;8.00;;;3.85;;
81950;SDS011;71452;52.562;5.642;2024-03-22T12:43:25;8.65;;;4.25;;
81950;SDS011;71452;52.562;5.642;2024-03-22T12:45:51;9.32;;;4.10;;
81950;SDS011;71452;52.562;5.642;2024-03-22T12:48:18;9.85;;;4.47;;
81950;SDS011;71452;52.562;5.642;2024-03-22T12:50:45;8.63;;;3.80;;
81950;SDS011;71452;52.562;5.642;2024-03-22T12:53:12;9.68;;;4.68;;
81950;SDS011;71452;52.562;5.642;2024-03-22T12:55:38;8.45;;;3.95;;
81950;SDS011;71452;52.562;5.642;2024-03-22T12:58:05;10.75;;;4.35;;
81950;SDS011;71452;52.562;5.642;2024-03-22T13:00:34;11.35;;;4.60;;
81950;SDS011;71452;52.562;5.642;2024-03-22T13:03:01;10.82;;;3.78;;
81950;SDS011;71452;52.562;5.642;2024-03-22T13:07:54;12.88;;;3.08;;
81950;SDS011;71452;52.562;5.642;2024-03-22T13:10:21;7.05;;;3.78;;
81950;SDS011;71452;52.562;5.642;2024-03-22T13:12:48;6.50;;;2.88;;
81950;SDS011;71452;52.562;5.642;2024-03-22T13:15:14;8.95;;;2.97;;
81950;SDS011;71452;52.562;5.642;2024-03-22T13:17:44;11.55;;;4.03;;
81950;SDS011;71452;52.562;5.642;2024-03-22T13:20:10;9.20;;;4.25;;
81950;SDS011;71452;52.562;5.642;2024-03-22T13:22:37;7.32;;;4.03;;
81950;SDS011;71452;52.562;5.642;2024-03-22T13:25:04;6.45;;;3.72;;
81950;SDS011;71452;52.562;5.642;2024-03-22T13:27:31;12.73;;;4.18;;
81950;SDS011;71452;52.562;5.642;2024-03-22T13:29:58;11.02;;;4.05;;
81950;SDS011;71452;52.562;5.642;2024-03-22T13:32:25;9.13;;;3.65;;
81950;SDS011;71452;52.562;5.642;2024-03-22T13:34:54;6.75;;;2.67;;
81950;SDS011;71452;52.562;5.642;2024-03-22T13:37:21;10.38;;;3.00;;
81950;SDS011;71452;52.562;5.642;2024-03-22T13:39:48;8.82;;;3.75;;
81950;SDS011;71452;52.562;5.642;2024-03-22T13:42:15;7.07;;;3.47;;
81950;SDS011;71452;52.562;5.642;2024-03-22T13:44:41;10.73;;;3.95;;
81950;SDS011;71452;52.562;5.642;2024-03-22T13:47:08;7.72;;;3.13;;
81950;SDS011;71452;52.562;5.642;2024-03-22T13:49:35;9.63;;;2.85;;
81950;SDS011;71452;52.562;5.642;2024-03-22T13:52:04;3.53;;;1.67;;
81950;SDS011;71452;52.562;5.642;2024-03-22T13:54:31;5.68;;;2.50;;
81950;SDS011;71452;52.562;5.642;2024-03-22T13:56:58;6.32;;;2.10;;
81950;SDS011;71452;52.562;5.642;2024-03-22T13:59:24;6.05;;;1.70;;
81950;SDS011;71452;52.562;5.642;2024-03-22T14:01:51;6.35;;;1.48;;
81950;SDS011;71452;52.562;5.642;2024-03-22T14:04:18;5.53;;;1.70;;
81950;SDS011;71452;52.562;5.642;2024-03-22T14:06:45;3.65;;;1.70;;
81950;SDS011;71452;52.562;5.642;2024-03-22T14:09:14;4.95;;;2.10;;
81950;SDS011;71452;52.562;5.642;2024-03-22T14:11:41;5.07;;;1.45;;
81950;SDS011;71452;52.562;5.642;2024-03-22T14:14:08;6.63;;;1.75;;
81950;SDS011;71452;52.562;5.642;2024-03-22T14:16:35;5.38;;;1.30;;
81950;SDS011;71452;52.562;5.642;2024-03-22T14:19:02;4.10;;;1.77;;
81950;SDS011;71452;52.562;5.642;2024-03-22T14:21:28;4.63;;;1.30;;
81950;SDS011;71452;52.562;5.642;2024-03-22T14:23:55;6.32;;;1.80;;
81950;SDS011;71452;52.562;5.642;2024-03-22T14:26:24;4.50;;;1.10;;
81950;SDS011;71452;52.562;5.642;2024-03-22T14:28:51;5.15;;;1.77;;
81950;SDS011;71452;52.562;5.642;2024-03-22T14:31:18;4.75;;;1.52;;
81950;SDS011;71452;52.562;5.642;2024-03-22T14:33:45;1.63;;;0.90;;
81950;SDS011;71452;52.562;5.642;2024-03-22T14:36:12;8.27;;;1.83;;
81950;SDS011;71452;52.562;5.642;2024-03-22T14:38:39;4.95;;;1.20;;
81950;SDS011;71452;52.562;5.642;2024-03-22T14:41:05;3.42;;;1.10;;
81950;SDS011;71452;52.562;5.642;2024-03-22T14:43:35;9.55;;;1.65;;
81950;SDS011;71452;52.562;5.642;2024-03-22T14:46:02;3.95;;;1.30;;
81950;SDS011;71452;52.562;5.642;2024-03-22T14:48:29;5.75;;;1.60;;
81950;SDS011;71452;52.562;5.642;2024-03-22T14:50:55;4.53;;;1.33;;
81950;SDS011;71452;52.562;5.642;2024-03-22T14:53:22;3.85;;;1.08;;
81950;SDS011;71452;52.562;5.642;2024-03-22T14:58:20;6.43;;;0.90;;
81950;SDS011;71452;52.562;5.642;2024-03-22T15:00:53;3.38;;;0.98;;